Time;durP1;ratioP1;P1;durP2;ratioP2;P2;SDS_P1;SDS_P2;PMS_P1;PMS_P2;Temp;Humidity;BMP_temperature;BMP_pressure;BME280_temperature;BME280_humidity;BME280_pressure;Samples;Min_cycle;Max_cycle;Signal;HPM_P1;HPM_P2
2023/07/25 00:02:20;;;;;;;14.95;2.35;;;32.60;60.40;;;;;;4244366;28;20043;-55
2023/07/25 00:04:40;;;;;;;5.85;1.20;;;32.90;59.90;;;;;;4235668;28;20120;-55
2023/07/25 00:06:59;;;;;;;13.15;1.00;;;33.00;59.90;;;;;;4239449;28;20058;-55
2023/07/25 00:09:20;;;;;;;10.40;1.00;;;33.10;60.40;;;;;;4233261;28;20058;-55
2023/07/25 00:11:40;;;;;;;13.32;1.45;;;33.10;60.20;;;;;;4230202;28;20073;-55
2023/07/25 00:13:59;;;;;;;13.10;1.20;;;32.90;61.60;;;;;;4237447;28;20239;-55
2023/07/25 00:16:19;;;;;;;9.40;0.93;;;32.70;62.50;;;;;;4241659;28;20282;-55
2023/07/25 00:18:39;;;;;;;14.30;1.58;;;32.50;62.40;;;;;;4251521;28;20377;-55
2023/07/25 00:20:59;;;;;;;5.22;1.38;;;32.50;62.60;;;;;;4238911;28;20107;-55
2023/07/25 00:23:19;;;;;;;13.35;1.17;;;32.40;62.90;;;;;;4235539;28;20129;-55
2023/07/25 00:25:40;;;;;;;8.45;1.15;;;32.40;62.70;;;;;;4245564;28;20080;-55
2023/07/25 00:28:00;;;;;;;7.22;0.77;;;32.40;63.20;;;;;;4231103;28;20043;-56
2023/07/25 00:30:20;;;;;;;14.10;1.00;;;32.40;64.10;;;;;;4240988;28;20046;-55
2023/07/25 00:32:40;;;;;;;4.88;1.55;;;32.20;64.40;;;;;;4241551;28;20043;-54
2023/07/25 00:35:01;;;;;;;11.98;1.00;;;32.10;64.40;;;;;;4231760;28;20071;-55
2023/07/25 00:37:21;;;;;;;6.07;1.50;;;32.10;65.20;;;;;;4244669;28;20081;-55
2023/07/25 00:39:41;;;;;;;6.28;0.88;;;32.00;66.00;;;;;;4228245;28;20138;-54
2023/07/25 00:42:01;;;;;;;8.07;0.88;;;31.90;66.60;;;;;;4248212;28;20364;-55
2023/07/25 00:44:21;;;;;;;5.55;0.80;;;31.60;67.60;;;;;;4240309;28;20050;-55
2023/07/25 00:46:42;;;;;;;4.28;0.80;;;31.50;68.20;;;;;;4233913;28;20405;-54
2023/07/25 00:49:05;;;;;;;7.68;1.35;;;31.50;67.80;;;;;;4236092;28;20055;-55
2023/07/25 00:51:25;;;;;;;10.35;1.10;;;31.30;68.50;;;;;;4213631;28;20082;-54
2023/07/25 00:53:45;;;;;;;8.35;1.17;;;31.20;68.00;;;;;;4241052;28;20373;-54
2023/07/25 00:56:07;;;;;;;11.15;1.65;;;31.40;67.80;;;;;;4231023;28;20104;-54
2023/07/25 00:58:29;;;;;;;12.07;2.72;;;31.40;68.00;;;;;;4245941;28;20038;-55
2023/07/25 01:00:49;;;;;;;5.03;1.00;;;31.30;68.80;;;;;;4240884;28;20042;-55
2023/07/25 01:03:10;;;;;;;11.05;1.38;;;31.00;71.70;;;;;;4235364;28;20050;-55
2023/07/25 01:05:34;;;;;;;8.90;0.90;;;30.50;73.90;;;;;;4240194;28;20243;-54
2023/07/25 01:07:55;;;;;;;9.75;1.13;;;30.10;76.40;;;;;;4236325;28;20043;-55
2023/07/25 01:10:15;;;;;;;13.48;1.77;;;29.90;78.20;;;;;;4248676;28;20092;-54
2023/07/25 01:12:35;;;;;;;19.10;1.90;;;29.80;78.60;;;;;;4232741;28;20372;-55
2023/07/25 01:14:56;;;;;;;8.10;1.20;;;30.60;70.20;;;;;;4231375;28;20047;-55
2023/07/25 01:17:20;;;;;;;15.52;1.73;;;30.30;77.40;;;;;;4248280;28;20047;-54
2023/07/25 01:19:43;;;;;;;9.00;1.58;;;29.60;79.40;;;;;;4228703;28;20069;-54
2023/07/25 01:22:08;;;;;;;5.97;1.77;;;29.50;77.00;;;;;;4232301;28;20054;-55
2023/07/25 01:24:28;;;;;;;10.70;1.20;;;29.50;78.70;;;;;;4238905;28;20055;-55
2023/07/25 01:26:48;;;;;;;4.88;1.13;;;29.40;79.40;;;;;;4235941;28;20042;-55
2023/07/25 01:29:08;;;;;;;15.13;2.08;;;30.00;74.50;;;;;;4237879;28;20046;-55
2023/07/25 01:31:28;;;;;;;15.63;1.20;;;30.00;74.80;;;;;;4236296;28;20093;-54
2023/07/25 01:33:49;;;;;;;11.95;2.65;;;29.90;75.50;;;;;;4243186;28;20050;-55
2023/07/25 01:36:08;;;;;;;18.15;1.30;;;30.10;74.00;;;;;;4214180;28;20289;-55
2023/07/25 01:38:29;;;;;;;11.00;1.13;;;30.30;73.00;;;;;;4235086;28;20054;-55
2023/07/25 01:40:49;;;;;;;12.85;1.00;;;30.30;73.70;;;;;;4241578;27;20043;-55
2023/07/25 01:43:09;;;;;;;9.55;1.08;;;30.10;74.70;;;;;;4229633;28;20131;-55
2023/07/25 01:45:29;;;;;;;13.50;1.10;;;29.90;76.00;;;;;;4245215;28;20051;-55
2023/07/25 01:47:49;;;;;;;7.10;1.05;;;29.90;76.30;;;;;;4241830;28;20055;-55
2023/07/25 01:50:09;;;;;;;9.82;1.30;;;29.80;76.80;;;;;;4248602;28;20091;-55
2023/07/25 01:52:31;;;;;;;11.98;1.15;;;29.70;77.50;;;;;;4234216;28;20067;-55
2023/07/25 01:54:54;;;;;;;16.52;1.98;;;29.40;78.70;;;;;;4239991;28;20051;-55
2023/07/25 01:57:13;;;;;;;;;;;29.30;79.20;;;;;;4235469;28;20055;-54
2023/07/25 01:59:33;;;;;;;2.30;0.90;;;29.30;79.90;;;;;;4230305;28;20265;-54
2023/07/25 02:01:53;;;;;;;6.00;0.90;;;29.10;81.40;;;;;;4241909;28;20108;-54
2023/07/25 02:04:13;;;;;;;9.95;1.20;;;28.90;82.60;;;;;;4237186;28;20043;-55
2023/07/25 02:06:34;;;;;;;18.02;1.52;;;28.80;83.90;;;;;;4244061;28;20042;-55
2023/07/25 02:08:53;;;;;;;5.20;1.80;;;28.60;84.40;;;;;;4246442;28;20381;-54
2023/07/25 02:11:13;;;;;;;13.45;1.50;;;28.50;85.10;;;;;;4231180;28;20099;-55
2023/07/25 02:13:34;;;;;;;10.50;1.27;;;28.40;85.80;;;;;;4244583;28;20244;-55
2023/07/25 02:15:54;;;;;;;6.95;1.33;;;28.20;86.70;;;;;;4233407;28;20078;-55
2023/07/25 02:18:14;;;;;;;8.15;1.45;;;28.10;87.50;;;;;;4237897;28;20099;-54
2023/07/25 02:20:34;;;;;;;8.57;1.10;;;27.90;87.90;;;;;;4240916;28;20082;-54
2023/07/25 02:22:54;;;;;;;11.65;1.63;;;27.90;88.30;;;;;;4229371;28;20061;-55
2023/07/25 02:25:15;;;;;;;14.30;1.48;;;27.90;88.70;;;;;;4243467;28;20077;-54
2023/07/25 02:27:35;;;;;;;11.88;1.50;;;27.80;88.80;;;;;;4245784;28;20084;-54
2023/07/25 02:29:56;;;;;;;15.55;1.40;;;27.80;89.00;;;;;;4246589;28;20073;-55
2023/07/25 02:32:16;;;;;;;8.95;1.70;;;27.70;89.80;;;;;;4236794;28;20295;-55
2023/07/25 02:34:36;;;;;;;9.75;1.45;;;27.60;89.50;;;;;;4237748;28;20046;-55
2023/07/25 02:36:56;;;;;;;11.55;1.10;;;27.60;89.50;;;;;;4237595;28;20294;-55
2023/07/25 02:39:17;;;;;;;10.43;1.10;;;27.90;87.60;;;;;;4232287;28;20366;-54
2023/07/25 02:41:39;;;;;;;5.63;1.17;;;28.00;87.80;;;;;;4249157;27;20077;-55
2023/07/25 02:43:59;;;;;;;9.73;1.33;;;28.10;87.00;;;;;;4229827;28;20142;-54
2023/07/25 02:46:22;;;;;;;7.90;0.88;;;28.20;86.20;;;;;;4228494;28;20083;-55
2023/07/25 02:48:42;;;;;;;11.45;1.35;;;28.30;85.70;;;;;;4246442;28;20385;-55
2023/07/25 02:51:02;;;;;;;13.35;2.25;;;28.40;85.90;;;;;;4246380;28;20062;-55
2023/07/25 02:53:22;;;;;;;8.93;1.00;;;28.40;86.30;;;;;;4240861;28;20106;-55
2023/07/25 02:55:43;;;;;;;6.78;1.27;;;28.40;86.90;;;;;;4235484;28;20115;-55
2023/07/25 02:58:03;;;;;;;8.05;1.30;;;28.40;87.90;;;;;;4237204;28;20106;-55
2023/07/25 03:00:24;;;;;;;9.43;1.10;;;28.40;88.10;;;;;;4233838;28;20370;-55
2023/07/25 03:02:44;;;;;;;10.68;1.15;;;28.30;88.80;;;;;;4236199;28;20061;-55
2023/07/25 03:05:04;;;;;;;6.80;1.10;;;28.30;89.30;;;;;;4246131;28;20066;-55
2023/07/25 03:07:24;;;;;;;15.15;1.70;;;28.20;90.60;;;;;;4230131;28;20079;-55
2023/07/25 03:09:44;;;;;;;10.60;2.03;;;28.20;91.10;;;;;;4232994;28;20047;-55
2023/07/25 03:12:05;;;;;;;12.40;1.65;;;28.10;91.60;;;;;;4234175;28;20071;-55
2023/07/25 03:14:25;;;;;;;15.60;2.85;;;28.00;92.00;;;;;;4244294;28;20067;-55
2023/07/25 03:16:45;;;;;;;9.80;1.90;;;27.90;92.70;;;;;;4234517;28;20042;-55
2023/07/25 03:19:05;;;;;;;9.85;2.22;;;27.90;93.10;;;;;;4236095;28;20285;-55
2023/07/25 03:21:25;;;;;;;15.30;1.98;;;27.80;94.10;;;;;;4234087;28;20046;-55
2023/07/25 03:23:44;;;;;;;9.98;1.58;;;27.60;95.00;;;;;;4230740;28;20077;-55
2023/07/25 03:26:04;;;;;;;13.07;2.10;;;27.50;95.60;;;;;;4235435;28;20221;-54
2023/07/25 03:28:25;;;;;;;9.82;1.25;;;27.50;96.10;;;;;;4237270;28;20050;-55
2023/07/25 03:30:45;;;;;;;16.88;2.28;;;27.30;96.70;;;;;;4230350;28;20235;-55
2023/07/25 03:33:05;;;;;;;11.70;2.97;;;27.30;97.70;;;;;;4242138;28;20097;-55
2023/07/25 03:35:25;;;;;;;17.60;3.22;;;27.10;99.00;;;;;;4227970;28;20077;-56
2023/07/25 03:37:45;;;;;;;15.93;2.75;;;26.80;99.90;;;;;;4232046;28;20265;-57
2023/07/25 03:40:06;;;;;;;8.57;2.10;;;26.60;99.90;;;;;;4239317;27;20055;-56
2023/07/25 03:42:26;;;;;;;9.15;2.42;;;26.30;99.90;;;;;;4235521;28;20072;-57
2023/07/25 03:44:47;;;;;;;13.93;2.03;;;26.10;99.90;;;;;;4232626;28;20070;-57
2023/07/25 03:47:07;;;;;;;11.75;2.47;;;25.90;99.90;;;;;;4230208;28;20075;-57
2023/07/25 03:49:27;;;;;;;10.70;2.75;;;25.80;99.90;;;;;;4242637;28;20396;-57
2023/07/25 03:51:47;;;;;;;13.48;1.60;;;25.40;99.90;;;;;;4237774;28;20051;-56
2023/07/25 03:54:08;;;;;;;10.75;3.58;;;25.10;99.90;;;;;;4238370;28;20085;-56
2023/07/25 03:56:28;;;;;;;13.48;1.85;;;25.00;99.90;;;;;;4248729;28;20080;-56
2023/07/25 03:58:48;;;;;;;14.00;3.33;;;25.00;99.90;;;;;;4241912;28;20059;-56
2023/07/25 04:01:08;;;;;;;15.65;3.05;;;25.20;99.90;;;;;;4244607;28;20049;-56
2023/07/25 04:03:29;;;;;;;13.52;2.50;;;25.20;99.90;;;;;;4239500;28;20042;-56
2023/07/25 04:05:49;;;;;;;12.73;2.47;;;25.00;99.90;;;;;;4252797;28;20054;-56
2023/07/25 04:08:09;;;;;;;16.30;2.83;;;25.00;99.90;;;;;;4234780;28;20063;-56
2023/07/25 04:10:29;;;;;;;11.95;2.08;;;25.00;99.90;;;;;;4234860;28;20335;-56
2023/07/25 04:12:51;;;;;;;14.73;1.80;;;25.00;99.90;;;;;;4250311;28;20046;-55
2023/07/25 04:15:11;;;;;;;9.73;1.67;;;24.80;99.90;;;;;;4231942;28;20066;-55
2023/07/25 04:17:31;;;;;;;13.50;3.25;;;24.70;99.90;;;;;;4228086;28;20065;-55
2023/07/25 04:19:51;;;;;;;10.10;2.22;;;24.60;99.90;;;;;;4239850;28;20051;-55
2023/07/25 04:22:11;;;;;;;11.77;2.10;;;24.40;99.90;;;;;;4240153;28;20058;-55
2023/07/25 04:24:31;;;;;;;7.57;1.98;;;24.40;99.90;;;;;;4241069;28;20294;-55
2023/07/25 04:26:52;;;;;;;6.35;2.03;;;24.40;99.90;;;;;;4236334;28;20042;-54
2023/07/25 04:29:12;;;;;;;7.85;1.60;;;24.20;99.90;;;;;;4237484;28;20050;-54
2023/07/25 04:31:32;;;;;;;5.57;1.00;;;23.90;99.90;;;;;;4232716;28;20111;-55
2023/07/25 04:33:52;;;;;;;3.13;1.55;;;23.60;99.90;;;;;;4237376;28;20051;-55
2023/07/25 04:36:13;;;;;;;3.88;1.33;;;23.50;99.90;;;;;;4245976;28;20058;-55
2023/07/25 04:38:33;;;;;;;3.88;1.40;;;23.50;99.90;;;;;;4238620;28;20265;-55
2023/07/25 04:40:53;;;;;;;6.07;1.20;;;23.40;99.90;;;;;;4243599;28;20043;-55
2023/07/25 04:43:13;;;;;;;4.03;1.30;;;23.30;99.90;;;;;;4234262;28;20106;-54
2023/07/25 04:45:33;;;;;;;4.38;1.05;;;23.30;99.90;;;;;;4237365;28;20131;-54
2023/07/25 04:47:55;;;;;;;1.60;1.45;;;23.30;99.90;;;;;;4235143;28;20086;-55
2023/07/25 04:50:15;;;;;;;1.70;1.10;;;23.30;99.90;;;;;;4237759;28;20124;-54
2023/07/25 04:52:35;;;;;;;2.90;0.93;;;23.20;99.90;;;;;;4243164;28;20121;-55
2023/07/25 04:54:57;;;;;;;5.38;1.00;;;23.20;99.90;;;;;;4232524;28;20142;-54
2023/07/25 04:57:17;;;;;;;5.80;1.20;;;23.10;99.90;;;;;;4241015;28;20113;-55
2023/07/25 04:59:37;;;;;;;6.82;1.50;;;23.00;99.90;;;;;;4228643;28;20050;-55
2023/07/25 05:01:57;;;;;;;5.93;2.03;;;23.00;99.90;;;;;;4246045;28;20046;-55
2023/07/25 05:04:19;;;;;;;2.80;1.58;;;23.00;99.90;;;;;;4246137;28;20051;-55
2023/07/25 05:06:40;;;;;;;4.38;1.65;;;23.00;99.90;;;;;;4231085;28;20043;-56
2023/07/25 05:09:00;;;;;;;5.15;1.50;;;23.00;99.90;;;;;;4231592;28;20086;-55
2023/07/25 05:11:20;;;;;;;3.90;1.50;;;23.00;99.90;;;;;;4234854;28;20075;-55
2023/07/25 05:13:40;;;;;;;10.20;2.22;;;23.10;99.90;;;;;;4236808;28;20051;-55
2023/07/25 05:16:00;;;;;;;9.38;2.22;;;23.00;99.90;;;;;;4238465;28;20051;-54
2023/07/25 05:18:20;;;;;;;14.13;1.65;;;23.00;99.90;;;;;;4229765;28;20096;-55
2023/07/25 05:20:40;;;;;;;8.88;1.75;;;23.10;99.90;;;;;;4242671;28;20050;-55
2023/07/25 05:23:00;;;;;;;7.45;2.33;;;23.10;99.90;;;;;;4239013;28;20047;-55
2023/07/25 05:25:20;;;;;;;7.10;1.70;;;23.10;99.90;;;;;;4241194;28;20054;-55
2023/07/25 05:27:40;;;;;;;9.10;3.08;;;23.10;99.90;;;;;;4243070;28;20051;-54
2023/07/25 05:30:00;;;;;;;9.90;2.20;;;23.10;99.90;;;;;;4253202;28;20042;-54
2023/07/25 05:32:22;;;;;;;4.35;2.05;;;23.10;99.90;;;;;;4237984;28;20059;-55
2023/07/25 05:34:44;;;;;;;7.90;2.13;;;23.00;99.90;;;;;;4233268;28;20369;-56
2023/07/25 05:37:05;;;;;;;5.05;1.98;;;23.00;99.90;;;;;;4248451;28;20062;-57
2023/07/25 05:39:25;;;;;;;9.43;1.75;;;22.90;99.90;;;;;;4236193;28;20244;-58
2023/07/25 05:41:47;;;;;;;11.55;2.38;;;22.80;99.90;;;;;;4233275;28;20062;-57
2023/07/25 05:44:07;;;;;;;14.45;2.50;;;22.80;99.90;;;;;;4245443;28;20065;-57
2023/07/25 05:46:27;;;;;;;10.50;2.25;;;22.80;99.90;;;;;;4242375;28;20084;-57
2023/07/25 05:48:47;;;;;;;9.73;1.55;;;22.80;99.90;;;;;;4243980;28;20416;-57
2023/07/25 05:51:09;;;;;;;6.65;2.05;;;22.80;99.90;;;;;;4234455;28;20050;-57
2023/07/25 05:53:32;;;;;;;9.93;2.67;;;22.80;99.90;;;;;;4226251;28;20243;-57
2023/07/25 05:55:54;;;;;;;13.60;1.55;;;22.70;99.90;;;;;;4234515;28;20103;-57
2023/07/25 05:58:15;;;;;;;13.02;2.45;;;22.60;99.90;;;;;;4235025;28;20110;-59
2023/07/25 06:00:34;;;;;;;9.43;1.88;;;22.60;99.90;;;;;;4246137;28;20049;-58
2023/07/25 06:02:55;;;;;;;6.50;2.50;;;22.40;99.90;;;;;;4230004;28;20051;-59
2023/07/25 06:05:15;;;;;;;9.48;3.10;;;22.20;99.90;;;;;;4232383;28;20235;-58
2023/07/25 06:07:35;;;;;;;10.52;2.15;;;22.00;99.90;;;;;;4238456;28;20046;-58
2023/07/25 06:09:55;;;;;;;7.93;2.67;;;21.90;99.90;;;;;;4228944;28;20050;-58
2023/07/25 06:12:16;;;;;;;6.95;2.40;;;21.90;99.90;;;;;;4236706;28;20112;-57
2023/07/25 06:14:36;;;;;;;5.57;2.00;;;21.80;99.90;;;;;;4237050;28;20045;-57
2023/07/25 06:16:56;;;;;;;7.15;2.05;;;21.80;99.90;;;;;;4241309;28;20054;-58
2023/07/25 06:19:16;;;;;;;9.68;1.67;;;21.80;99.90;;;;;;4231180;28;20045;-57
2023/07/25 06:21:37;;;;;;;6.03;1.90;;;21.80;99.90;;;;;;4237006;28;20053;-57
2023/07/25 06:23:57;;;;;;;4.57;2.70;;;21.70;99.90;;;;;;4231870;28;20265;-57
2023/07/25 06:26:17;;;;;;;4.82;1.85;;;21.70;99.90;;;;;;4227873;28;20461;-56
2023/07/25 06:28:37;;;;;;;8.27;1.00;;;21.80;99.90;;;;;;4240942;28;20050;-56
2023/07/25 06:30:57;;;;;;;5.38;1.80;;;21.90;99.90;;;;;;4229357;28;20522;-56
2023/07/25 06:33:17;;;;;;;2.30;1.20;;;22.00;99.90;;;;;;4243888;28;20405;-55
2023/07/25 06:35:37;;;;;;;3.80;1.45;;;22.10;99.90;;;;;;4238934;28;20058;-55
2023/07/25 06:37:56;;;;;;;5.05;1.75;;;22.30;99.90;;;;;;4233131;28;20051;-55
2023/07/25 06:40:17;;;;;;;4.63;1.40;;;22.50;99.90;;;;;;4239959;27;20042;-55
2023/07/25 06:42:37;;;;;;;5.03;1.42;;;22.60;99.90;;;;;;4227861;28;20236;-55
2023/07/25 06:44:58;;;;;;;4.30;1.63;;;22.80;99.90;;;;;;4238603;28;20050;-54
2023/07/25 06:47:18;;;;;;;5.00;1.40;;;23.00;99.90;;;;;;4246786;28;20039;-55
2023/07/25 06:49:38;;;;;;;8.20;1.58;;;23.10;99.90;;;;;;4237621;28;20099;-54
2023/07/25 06:52:00;;;;;;;5.68;1.58;;;23.20;99.90;;;;;;4247001;28;20050;-55
2023/07/25 06:54:20;;;;;;;7.03;1.38;;;23.40;99.90;;;;;;4236877;28;20059;-54
2023/07/25 06:56:40;;;;;;;9.40;2.08;;;23.50;99.90;;;;;;4239955;28;20046;-55
2023/07/25 06:59:00;;;;;;;8.05;1.77;;;23.70;99.90;;;;;;4233656;28;20104;-54
2023/07/25 07:01:20;;;;;;;5.30;1.40;;;23.80;99.90;;;;;;4235285;28;20293;-54
2023/07/25 07:03:41;;;;;;;6.13;1.58;;;24.00;99.90;;;;;;4237483;28;20081;-55
2023/07/25 07:06:00;;;;;;;5.05;1.35;;;24.20;99.90;;;;;;4228423;28;20086;-55
2023/07/25 07:08:22;;;;;;;8.20;1.52;;;24.10;99.90;;;;;;4248503;28;20081;-54
2023/07/25 07:10:42;;;;;;;6.78;2.03;;;24.10;99.90;;;;;;4246045;28;20100;-54
2023/07/25 07:13:02;;;;;;;7.05;1.95;;;24.10;99.90;;;;;;4247517;28;20050;-55
2023/07/25 07:15:24;;;;;;;6.28;1.50;;;23.80;99.90;;;;;;4240993;28;20092;-55
2023/07/25 07:17:44;;;;;;;9.32;1.75;;;23.50;99.90;;;;;;4240883;28;20086;-54
2023/07/25 07:20:05;;;;;;;3.70;1.10;;;23.50;99.90;;;;;;4241569;28;20095;-55
2023/07/25 07:22:25;;;;;;;6.88;1.48;;;23.40;99.90;;;;;;4235855;28;20088;-56
2023/07/25 07:24:45;;;;;;;10.07;1.38;;;23.50;99.90;;;;;;4245275;28;20289;-54
2023/07/25 07:27:06;;;;;;;5.28;1.55;;;23.60;99.90;;;;;;4231399;28;20035;-54
2023/07/25 07:29:26;;;;;;;12.25;2.13;;;23.70;99.90;;;;;;4236706;28;20063;-55
2023/07/25 07:31:48;;;;;;;12.10;2.13;;;23.50;99.90;;;;;;4246583;28;20069;-55
2023/07/25 07:34:14;;;;;;;7.60;2.13;;;23.50;99.90;;;;;;4236684;28;20088;-55
2023/07/25 07:36:34;;;;;;;3.97;1.10;;;23.40;99.90;;;;;;4243270;28;20044;-55
2023/07/25 07:38:54;;;;;;;8.25;2.28;;;23.30;99.90;;;;;;4243601;28;20046;-54
2023/07/25 07:41:14;;;;;;;3.17;1.48;;;23.30;99.90;;;;;;4240018;27;20370;-54
2023/07/25 07:43:35;;;;;;;6.88;1.77;;;23.30;99.90;;;;;;4238043;28;20050;-55
2023/07/25 07:45:57;;;;;;;5.68;2.08;;;23.40;99.90;;;;;;4237956;28;20485;-54
2023/07/25 07:48:17;;;;;;;5.72;1.50;;;23.50;99.90;;;;;;4241347;28;20082;-55
2023/07/25 07:50:37;;;;;;;6.28;2.17;;;23.60;99.90;;;;;;4229721;28;20041;-55
2023/07/25 07:52:57;;;;;;;5.60;1.50;;;24.00;99.90;;;;;;4240526;28;20042;-55
2023/07/25 07:55:17;;;;;;;5.05;1.58;;;24.30;99.90;;;;;;4239297;28;20043;-55
2023/07/25 07:57:46;;;;;;;5.68;1.73;;;24.50;99.90;;;;;;4247583;28;20051;-54
2023/07/25 08:00:08;;;;;;;6.40;1.83;;;24.30;99.90;;;;;;4241644;28;20438;-54
2023/07/25 08:02:28;;;;;;;7.72;1.98;;;24.30;99.90;;;;;;4217338;28;20051;-54
2023/07/25 08:04:48;;;;;;;8.65;2.28;;;24.50;99.90;;;;;;4233179;28;20046;-55
2023/07/25 08:07:08;;;;;;;5.38;1.23;;;25.00;99.90;;;;;;4232173;28;20054;-55
2023/07/25 08:09:29;;;;;;;5.18;1.42;;;25.10;99.90;;;;;;4237806;28;20114;-55
2023/07/25 08:11:49;;;;;;;7.57;1.10;;;25.00;99.90;;;;;;4244682;28;20046;-54
2023/07/25 08:14:09;;;;;;;8.68;1.45;;;25.10;99.90;;;;;;4232005;28;20384;-55
2023/07/25 08:16:30;;;;;;;6.03;1.30;;;25.20;99.90;;;;;;4246257;28;20272;-55
2023/07/25 08:18:50;;;;;;;7.80;2.65;;;25.40;99.90;;;;;;4239926;28;20075;-55
2023/07/25 08:21:10;;;;;;;5.38;1.30;;;25.30;99.90;;;;;;4244817;28;20050;-55
2023/07/25 08:23:32;;;;;;;6.47;1.85;;;25.20;99.90;;;;;;4248891;28;20087;-54
2023/07/25 08:25:55;;;;;;;11.63;1.42;;;25.60;99.90;;;;;;4225756;28;20047;-55
2023/07/25 08:28:16;;;;;;;6.55;1.35;;;25.80;99.90;;;;;;4238216;28;20242;-55
2023/07/25 08:30:35;;;;;;;8.27;1.75;;;25.90;99.90;;;;;;4231303;28;20085;-54
2023/07/25 08:32:56;;;;;;;8.38;1.30;;;25.80;99.90;;;;;;4252084;28;20050;-54
2023/07/25 08:35:16;;;;;;;6.53;0.90;;;25.60;99.90;;;;;;4239357;28;20051;-55
2023/07/25 08:37:36;;;;;;;4.10;1.55;;;25.50;99.90;;;;;;4243270;28;20047;-55
2023/07/25 08:39:57;;;;;;;5.45;1.25;;;25.50;99.90;;;;;;4244983;28;20042;-55
2023/07/25 08:42:21;;;;;;;5.50;1.42;;;25.40;99.90;;;;;;4240991;28;20077;-55
2023/07/25 08:44:42;;;;;;;4.72;0.90;;;25.60;99.90;;;;;;4244263;28;20085;-54
2023/07/25 08:47:09;;;;;;;6.93;1.45;;;25.90;99.90;;;;;;4237814;28;20046;-54
2023/07/25 08:49:34;;;;;;;6.82;1.20;;;26.10;99.90;;;;;;4251557;28;20050;-54
2023/07/25 08:51:54;;;;;;;8.40;1.35;;;26.00;99.90;;;;;;4233624;28;20108;-55
2023/07/25 08:54:28;;;;;;;8.55;1.40;;;26.10;99.90;;;;;;4236311;28;20039;-55
2023/07/25 08:56:48;;;;;;;6.88;1.50;;;26.20;99.90;;;;;;4249207;28;20087;-54
2023/07/25 08:59:10;;;;;;;3.88;1.10;;;26.30;99.90;;;;;;4229333;28;20365;-55
2023/07/25 09:01:30;;;;;;;10.27;1.15;;;26.50;99.90;;;;;;4241409;28;20050;-54
2023/07/25 09:03:52;;;;;;;7.68;2.05;;;26.60;99.90;;;;;;4235843;28;20091;-55
2023/07/25 09:06:13;;;;;;;3.63;1.00;;;26.70;99.90;;;;;;4235919;28;20047;-55
2023/07/25 09:08:33;;;;;;;3.22;1.02;;;26.90;99.70;;;;;;4235624;28;20107;-55
2023/07/25 09:10:57;;;;;;;2.95;1.08;;;27.20;99.90;;;;;;4238192;28;20038;-55
2023/07/25 09:13:19;;;;;;;4.72;1.17;;;27.50;99.70;;;;;;4238669;28;20238;-55
2023/07/25 09:15:39;;;;;;;7.82;1.15;;;27.70;99.40;;;;;;4230214;28;20365;-55
2023/07/25 09:17:59;;;;;;;5.30;1.25;;;27.80;98.30;;;;;;4240774;28;20084;-55
2023/07/25 09:20:20;;;;;;;5.07;1.20;;;28.10;98.50;;;;;;4245294;28;20087;-55
2023/07/25 09:22:50;;;;;;;4.53;0.90;;;28.40;98.50;;;;;;4239168;28;20099;-55
2023/07/25 09:25:13;;;;;;;4.90;1.00;;;28.40;97.30;;;;;;4238622;28;20238;-55
2023/07/25 09:27:34;;;;;;;4.95;1.02;;;28.50;97.70;;;;;;4232797;28;20234;-55
2023/07/25 09:29:54;;;;;;;6.15;1.30;;;28.40;97.80;;;;;;4247042;28;20046;-55
2023/07/25 09:32:25;;;;;;;5.20;0.95;;;28.40;97.80;;;;;;4229942;28;20054;-55
2023/07/25 09:34:52;;;;;;;6.90;1.00;;;28.10;98.30;;;;;;4241781;28;20059;-55
2023/07/25 09:37:14;;;;;;;6.13;0.95;;;27.90;98.40;;;;;;4235801;28;20043;-55
2023/07/25 09:39:34;;;;;;;3.67;1.17;;;28.10;98.00;;;;;;4233029;28;20088;-55
2023/07/25 09:41:57;;;;;;;9.45;2.50;;;28.30;96.60;;;;;;4245844;28;20250;-55
2023/07/25 09:44:17;;;;;;;3.38;1.05;;;28.60;97.60;;;;;;4239537;28;20081;-55
2023/07/25 09:46:38;;;;;;;3.63;1.05;;;28.70;96.90;;;;;;4247386;28;20055;-55
2023/07/25 09:48:58;;;;;;;7.35;0.88;;;28.80;95.70;;;;;;4238845;28;20044;-55
2023/07/25 09:51:18;;;;;;;3.05;0.80;;;28.80;95.90;;;;;;4230247;28;20069;-55
2023/07/25 09:53:41;;;;;;;10.13;1.25;;;28.70;96.70;;;;;;4244359;28;20077;-55
2023/07/25 09:56:02;;;;;;;4.75;1.13;;;28.80;95.80;;;;;;4232653;28;20102;-55
2023/07/25 09:58:22;;;;;;;7.13;0.90;;;28.80;96.30;;;;;;4251389;28;20050;-55
2023/07/25 10:00:43;;;;;;;2.50;0.82;;;28.70;95.40;;;;;;4228410;28;20046;-55
2023/07/25 10:03:06;;;;;;;3.28;0.95;;;28.50;94.60;;;;;;4246948;28;20042;-55
2023/07/25 10:05:28;;;;;;;6.40;0.90;;;28.50;95.60;;;;;;4237555;28;20082;-56
2023/07/25 10:07:51;;;;;;;6.63;0.98;;;28.50;95.30;;;;;;4248069;28;20051;-55
2023/07/25 10:10:12;;;;;;;7.13;1.13;;;28.70;95.80;;;;;;4241984;28;20397;-55
2023/07/25 10:12:32;;;;;;;5.28;1.27;;;28.90;94.40;;;;;;4239342;28;20043;-55
2023/07/25 10:14:52;;;;;;;5.65;1.13;;;28.90;95.20;;;;;;4244855;28;20113;-55
2023/07/25 10:17:13;;;;;;;4.45;1.08;;;28.80;94.30;;;;;;4233482;28;20261;-55
2023/07/25 10:19:46;;;;;;;6.00;1.20;;;28.90;94.60;;;;;;4233212;28;20105;-55
2023/07/25 10:22:06;;;;;;;3.03;1.13;;;28.90;93.90;;;;;;4244303;28;20137;-55
2023/07/25 10:24:33;;;;;;;2.40;0.77;;;29.10;94.00;;;;;;4230035;28;20082;-55
2023/07/25 10:26:58;;;;;;;4.75;1.35;;;29.00;93.80;;;;;;4240563;28;20054;-55
2023/07/25 10:29:46;;;;;;;5.28;1.60;;;29.20;94.10;;;;;;4240081;28;20085;-55
2023/07/25 10:32:07;;;;;;;3.30;1.10;;;29.00;93.00;;;;;;4241591;28;20050;-55
2023/07/25 10:35:00;;;;;;;7.43;1.10;;;29.00;93.60;;;;;;4235418;28;20053;-56
2023/07/25 10:37:29;;;;;;;5.60;1.88;;;29.10;93.80;;;;;;4241691;28;20256;-55
2023/07/25 10:40:24;;;;;;;5.20;1.30;;;29.20;93.30;;;;;;4234440;28;20086;-56
2023/07/25 10:42:47;;;;;;;11.07;1.23;;;29.20;93.90;;;;;;4176097;28;20053;-55
2023/07/25 10:45:28;;;;;;;8.52;1.25;;;29.20;94.40;;;;;;4173881;28;20394;-55
2023/07/25 10:47:49;;;;;;;6.00;1.10;;;29.40;94.10;;;;;;4175018;28;20348;-55
2023/07/25 10:50:10;;;;;;;8.18;1.27;;;29.50;93.90;;;;;;4181087;28;20099;-55
2023/07/25 10:52:43;;;;;;;6.22;1.10;;;29.50;93.10;;;;;;4177127;28;20099;-55
2023/07/25 10:55:04;;;;;;;4.72;1.23;;;29.50;93.10;;;;;;4182501;28;20064;-55
2023/07/25 10:57:24;;;;;;;6.40;1.05;;;29.40;92.90;;;;;;4175308;28;20072;-55
2023/07/25 11:00:01;;;;;;;4.05;1.02;;;29.30;94.30;;;;;;4180615;28;20047;-55
2023/07/25 11:02:50;;;;;;;8.20;1.00;;;29.40;94.90;;;;;;4175656;28;20048;-55
2023/07/25 11:05:12;;;;;;;5.78;1.40;;;29.20;94.30;;;;;;4175433;28;20060;-55
2023/07/25 11:07:32;;;;;;;8.82;2.08;;;29.20;93.10;;;;;;4183989;28;20103;-56
2023/07/25 11:09:53;;;;;;;4.65;1.20;;;29.10;93.90;;;;;;4172865;28;20140;-56
2023/07/25 11:12:13;;;;;;;8.38;1.23;;;29.10;93.90;;;;;;4183629;28;20347;-55
2023/07/25 11:14:39;;;;;;;10.75;2.40;;;28.90;95.50;;;;;;4176529;28;20048;-55
2023/07/25 11:16:59;;;;;;;10.00;2.45;;;28.80;94.60;;;;;;4221744;28;20140;-55
2023/07/25 11:19:26;;;;;;;6.75;1.20;;;28.30;95.20;;;;;;4248491;28;20094;-55
2023/07/25 11:21:46;;;;;;;8.52;1.55;;;28.10;96.20;;;;;;4234069;28;20086;-55
2023/07/25 11:24:07;;;;;;;9.80;1.42;;;28.10;96.60;;;;;;4232769;28;20062;-55
2023/07/25 11:26:27;;;;;;;8.50;2.67;;;27.90;96.60;;;;;;4232400;28;20039;-55
2023/07/25 11:28:47;;;;;;;7.53;1.33;;;27.90;96.80;;;;;;4250746;28;20160;-55
2023/07/25 11:31:08;;;;;;;11.45;2.55;;;27.90;97.20;;;;;;4248252;28;20054;-55
2023/07/25 11:33:36;;;;;;;6.40;1.17;;;27.90;97.20;;;;;;4247348;28;20368;-55
2023/07/25 11:35:57;;;;;;;8.25;1.73;;;27.80;96.80;;;;;;4245182;28;20069;-55
2023/07/25 11:38:16;;;;;;;12.13;1.55;;;27.90;97.10;;;;;;4239783;28;20050;-54
2023/07/25 11:40:41;;;;;;;6.60;1.70;;;28.00;97.70;;;;;;4243400;28;20046;-55
2023/07/25 11:43:01;;;;;;;12.75;1.60;;;28.00;97.30;;;;;;4236086;28;20080;-57
2023/07/25 11:45:23;;;;;;;12.57;1.58;;;28.00;97.20;;;;;;4251521;28;20404;-57
2023/07/25 11:47:48;;;;;;;9.93;1.67;;;28.10;96.50;;;;;;4232856;28;20078;-57
2023/07/25 11:50:10;;;;;;;14.77;2.88;;;28.30;97.10;;;;;;4233292;28;20051;-60
2023/07/25 11:52:38;;;;;;;8.77;2.03;;;27.40;99.90;;;;;;4249127;28;20054;-58
2023/07/25 11:54:59;;;;;;;9.75;2.33;;;24.40;99.90;;;;;;4241339;28;20103;-60
2023/07/25 11:57:18;;;;;;;9.95;2.80;;;23.20;99.90;;;;;;4244479;28;20043;-59
2023/07/25 11:59:40;;;;;;;11.10;2.33;;;23.30;99.90;;;;;;4236230;28;20092;-59
2023/07/25 12:02:06;;;;;;;8.68;1.55;;;23.60;99.90;;;;;;4238042;28;20043;-58
2023/07/25 12:04:26;;;;;;;3.25;1.88;;;23.80;99.90;;;;;;4238117;28;20062;-59
2023/07/25 12:06:46;;;;;;;11.23;2.90;;;24.00;99.90;;;;;;4236921;28;20062;-59
2023/07/25 12:09:06;;;;;;;10.02;2.35;;;24.20;99.90;;;;;;4236725;28;20051;-59
2023/07/25 12:11:27;;;;;;;7.93;1.98;;;24.00;99.90;;;;;;4231754;28;20394;-58
2023/07/25 12:13:49;;;;;;;14.13;3.42;;;24.20;99.90;;;;;;4240476;28;20058;-58